St. George, UT

1:24 AM MDT on April 28, 2017 (GMT -0600)
Saint George Municipal

Weather History for KSGU - June, 2013

Change the Weather History Date:

Friday, June 28, 2013

  Actual Average Record
Temperature  
Mean Temperature 92 °F -  
Max Temperature 109 °F 102 °F 111 °F (1973)
Min Temperature 75 °F 66 °F 47 °F (1941)
Cooling Degree Days 27    
Growing Degree Days 42 (Base 50)    
Moisture  
Dew Point 40 °F    
Average Humidity 16    
Maximum Humidity 24    
Minimum Humidity 10    
Precipitation  
Precipitation 0.00 in - - ()
Sea Level Pressure  
Sea Level Pressure 30.08 in    
Wind  
Wind Speed 6 mph (South)    
Max Wind Speed 26 mph    
Max Gust Speed 34 mph    
Visibility 10 miles    
Events      
Averages and records for this station are not official NWS values.
T = Trace of Precipitation, MM = Missing Value Source: NWS Daily Summary

Daily Weather History Graph

Daily Weather History Graph

Search for Another Location

Airport or City:

Trip Planner

Search our weather history database for the weather conditions in past years. The results will help you decide how hot, cold, wet, or windy it might be!

Date:

Astronomy

Jun. 28, 2013 Rise Set
Actual Time 6:16 AM MDT 8:57 PM MDT
Civil Twilight 5:46 AM MDT 9:28 PM MDT
Nautical Twilight 5:07 AM MDT 10:07 PM MDT
Astronomical Twilight 4:24 AM MDT 10:50 PM MDT
Moon 12:05 AM MDT 12:19 PM MDT
Length of Visible Light 15h 42m
Length of Day
14h 41m
Waning Gibbous, 65% of the Moon is Illuminated
Jun 28
Waning Gibbous
Jun 29
Last Quarter
Jul 8
New
Jul 15
First Quarter
Jul 22
Full

Hourly Weather History & Observations

Time (MDT) Temp. Dew Point Humidity Pressure Visibility Wind Dir Wind Speed Gust Speed Precip Events Conditions
12:35 AM 87.8 °F 37.4 °F 17% 30.07 in 10.0 mi South 3.5 mph - N/A   Clear
12:55 AM 89.6 °F 37.4 °F 16% 30.07 in 10.0 mi SW 3.5 mph - N/A   Clear
1:15 AM 87.8 °F 37.4 °F 17% 30.07 in 10.0 mi South 3.5 mph - N/A   Clear
1:35 AM 86.0 °F 37.4 °F 18% 30.07 in 10.0 mi SSE 3.5 mph - N/A   Clear
1:55 AM 84.2 °F 37.4 °F 19% 30.07 in 10.0 mi East 4.6 mph - N/A   Clear
2:15 AM 82.4 °F 37.4 °F 20% 30.07 in 10.0 mi Calm Calm - N/A   Clear
2:35 AM 84.2 °F 37.4 °F 19% 30.07 in 10.0 mi East 5.8 mph - N/A   Clear
2:55 AM 84.2 °F 37.4 °F 19% 30.07 in 10.0 mi East 5.8 mph - N/A   Clear
3:15 AM 82.4 °F 37.4 °F 20% 30.07 in 10.0 mi Calm Calm - N/A   Clear
3:35 AM 80.6 °F 35.6 °F 20% 30.06 in 10.0 mi ENE 3.5 mph - N/A   Clear
3:55 AM 80.6 °F 37.4 °F 21% 30.06 in 10.0 mi Calm Calm - N/A   Clear
4:15 AM 80.6 °F 37.4 °F 21% 30.06 in 10.0 mi ESE 3.5 mph - N/A   Clear
4:35 AM 78.8 °F 35.6 °F 21% 30.07 in 10.0 mi ESE 4.6 mph - N/A   Clear
4:55 AM 78.8 °F 35.6 °F 21% 30.07 in 10.0 mi SW 3.5 mph - N/A   Clear
5:15 AM 77.0 °F 35.6 °F 22% 30.08 in 10.0 mi SSE 4.6 mph - N/A   Clear
5:35 AM 75.2 °F 35.6 °F 24% 30.08 in 10.0 mi SE 6.9 mph - N/A   Clear
5:55 AM 75.2 °F 35.6 °F 24% 30.08 in 10.0 mi SE 9.2 mph - N/A   Clear
6:15 AM 75.2 °F 35.6 °F 24% 30.09 in 10.0 mi ESE 4.6 mph - N/A   Clear
6:35 AM 77.0 °F 35.6 °F 22% 30.09 in 10.0 mi ESE 4.6 mph - N/A   Clear
7:15 AM 77.0 °F 35.6 °F 22% 30.10 in 10.0 mi Calm Calm - N/A   Clear
7:35 AM 78.8 °F 35.6 °F 21% 30.10 in 10.0 mi East 6.9 mph - N/A   Clear
7:55 AM 82.4 °F 37.4 °F 20% 30.10 in 10.0 mi East 5.8 mph - N/A   Clear
8:15 AM 82.4 °F 37.4 °F 20% 30.11 in 10.0 mi SE 3.5 mph - N/A   Clear
8:35 AM 86.0 °F 37.4 °F 18% 30.11 in 10.0 mi SSE 5.8 mph - N/A   Clear
8:55 AM 87.8 °F 37.4 °F 17% 30.11 in 10.0 mi SSE 4.6 mph - N/A   Clear
9:15 AM 87.8 °F 37.4 °F 17% 30.11 in 10.0 mi Calm Calm - N/A   Clear
9:35 AM 89.6 °F 37.4 °F 16% 30.10 in 10.0 mi Calm Calm - N/A   Clear
9:55 AM 89.6 °F 39.2 °F 17% 30.10 in 10.0 mi Calm Calm - N/A   Clear
10:15 AM 91.4 °F 39.2 °F 16% - 10.0 mi WSW 3.5 mph - N/A   Clear
10:35 AM 91.4 °F 39.2 °F 16% - 10.0 mi SSW 4.6 mph - N/A   Clear
10:55 AM 93.2 °F 39.2 °F 15% 30.08 in 10.0 mi West 3.5 mph - N/A   Clear
11:15 AM 95.0 °F 41.0 °F 15% - 10.0 mi Calm Calm - N/A   Clear
11:35 AM 96.8 °F 41.0 °F 15% - 10.0 mi Calm Calm - N/A   Clear
11:55 AM 98.6 °F 42.8 °F 15% - 10.0 mi West 4.6 mph - N/A   Clear
12:15 PM 98.6 °F 42.8 °F 15% - 10.0 mi West 5.8 mph - N/A   Clear
12:35 PM 100.4 °F 42.8 °F 14% - 10.0 mi Calm Calm - N/A   Clear
12:55 PM 102.2 °F 44.6 °F 14% - 10.0 mi Calm Calm - N/A   Clear
1:15 PM 104.0 °F 44.6 °F 13% - 10.0 mi WNW 5.8 mph - N/A   Clear
1:35 PM 104.0 °F 44.6 °F 13% - 10.0 mi NW 3.5 mph - N/A   Clear
1:55 PM 105.8 °F 44.6 °F 13% - 10.0 mi West 9.2 mph - N/A   Clear
2:15 PM 107.6 °F 44.6 °F 12% - 10.0 mi West 6.9 mph - N/A   Clear
2:35 PM 107.6 °F 44.6 °F 12% - 10.0 mi WNW 4.6 mph - N/A   Clear
2:55 PM 107.6 °F 44.6 °F 12% - 10.0 mi ESE 4.6 mph - N/A   Clear
3:15 PM 109.4 °F 44.6 °F 11% - 10.0 mi West 5.8 mph - N/A   Clear
3:35 PM 109.4 °F 42.8 °F 11% - 10.0 mi SSW 5.8 mph - N/A   Clear
3:55 PM 109.4 °F 42.8 °F 11% - 10.0 mi SSW 9.2 mph - N/A   Clear
4:15 PM 109.4 °F 42.8 °F 11% - 10.0 mi SW 6.9 mph - N/A   Clear
4:35 PM 109.4 °F 42.8 °F 11% - 10.0 mi WSW 12.7 mph - N/A   Clear
4:55 PM 109.4 °F 42.8 °F 11% - 10.0 mi WSW 13.8 mph 19.6 mph N/A   Clear
5:15 PM 109.4 °F 41.0 °F 10% - 10.0 mi WSW 13.8 mph - N/A   Clear
5:35 PM 109.4 °F 42.8 °F 11% - 10.0 mi WSW 11.5 mph - N/A   Clear
5:55 PM 109.4 °F 42.8 °F 11% - 10.0 mi WSW 13.8 mph 17.3 mph N/A   Clear
6:15 PM 109.4 °F 41.0 °F 10% - 10.0 mi WSW 16.1 mph - N/A   Clear
6:35 PM 109.4 °F 41.0 °F 10% - 10.0 mi SW 18.4 mph - N/A   Clear
6:55 PM 109.4 °F 41.0 °F 10% - 10.0 mi WSW 15.0 mph - N/A   Clear
7:15 PM 109.4 °F 41.0 °F 10% - 10.0 mi WSW 13.8 mph - N/A   Clear
8:15 PM 107.6 °F 39.2 °F 10% - 10.0 mi WSW 10.4 mph - N/A   Clear
8:55 PM 102.2 °F 39.2 °F 11% - 10.0 mi NE 26.5 mph 32.2 mph N/A   Clear
9:15 PM 100.4 °F 39.2 °F 12% - 10.0 mi NE 20.7 mph 33.4 mph N/A   Clear
9:35 PM 98.6 °F 39.2 °F 13% - 10.0 mi NE 23.0 mph 34.5 mph N/A   Clear
9:55 PM 98.6 °F 39.2 °F 13% - 10.0 mi NE 25.3 mph 32.2 mph N/A   Clear
10:15 PM 98.6 °F 39.2 °F 13% - 10.0 mi NE 20.7 mph 31.1 mph N/A   Clear
10:35 PM 98.6 °F 39.2 °F 13% - 10.0 mi ENE 19.6 mph 24.2 mph N/A   Clear
10:55 PM 96.8 °F 39.2 °F 14% - 10.0 mi NE 20.7 mph 26.5 mph N/A   Clear
11:15 PM 98.6 °F 39.2 °F 13% - 10.0 mi NE 17.3 mph 25.3 mph N/A   Clear
11:35 PM 98.6 °F 39.2 °F 13% - 10.0 mi NNE 18.4 mph 25.3 mph N/A   Clear
11:55 PM 96.8 °F 39.2 °F 14% - 10.0 mi East 4.6 mph - N/A   Clear